首页
METAR-TAF:

METAR-TAF

机场 :

North Bay, 安大略省, 加拿大

纬度: 46-21N, 经度: 079-26W, 海拔: 358米

当前天气观测

该预报发布于28分钟前的16:00 UTC
风速5节,风向东转东南
温度 -12°C
湿度 56%
气压 1025 hPa
能見度: 48.3公里
天空无云

METAR: CYYB 171600Z 12005KT 30SM SKC M12/M19 A3027 RMK SLP286

时间: 11:28 (16:28 UTC)

预报

该预报发布于2小时和49分钟前的13:39 UTC
预报有效从17日的 14点(UTC)到 18日的 02点(UTC)
风速3节,风向多变
能見度: 10公里
天空无云
成为
从 17日的 14点(UTC)到 17日的 16点(UTC)
风速5节,风向东转东南
从 18日的 0000点(UTC)
风速8节,风向东转东南
能見度: 10公里
少量云层高于14000英尺

TAF: CYYB 171339Z 1714/1802 VRB03KT P6SM SKC BECMG 1714/1716 12005KT FM180000 11008KT P6SM FEW140 RMK NXT FCST BY 172000Z

超过4000个机场的气象观测和天气预报(METAR&TAF报告)。

可查询的气象台以黄色和红色小点在地图上表示。

将鼠标移到小点上方,可查看气象台名称。

然后点击查看天气观测和预报。

如需切换地图:点击带黑十字的绿色按钮放大地图;点击带横线的绿色按钮缩小地图;或者点击绿色箭头查看邻近地区的地图。


METAR-TAF: